Terminal Aerodrome Forecast
Issued by NWS Wichita, KS

Home | Current Version | Previous Version | Text Only | Print | Product List | Glossary On
Versions: 1 2 3 4 5 6 7 8 9 10 11 12 13 14
000
FTUS43 KICT 062147 AAC
TAFICT
TAF AMD
KICT 062147Z 0622/0718 20016G24KT P6SM VCTS SCT007 OVC040CB
      TEMPO 0622/0624 VRB20G40KT 1/2SM +TSRA OVC007CB
     FM070000 24015G25KT 4SM TSRA SCT015 BKN035CB OVC100
     FM070200 35013KT P6SM VCTS OVC040CB
     FM070700 02014KT 6SM -SHRA VCTS OVC035CB=

USA.gov is the U.S. government's official web portal to all federal, state and local government web resources and services.